Time;durP1;ratioP1;P1;durP2;ratioP2;P2;SDS_P1;SDS_P2;PMS_P1;PMS_P2;Temp;Humidity;BMP_temperature;BMP_pressure;BME280_temperature;BME280_humidity;BME280_pressure;Samples;Min_cycle;Max_cycle;Signal;HPM_P1;HPM_P2
2022/01/17 00:04:50;;;;;;;106.43;41.17;;;;;4.70;102689.00;;;;9901395;29;20208;-79
2022/01/17 00:09:52;;;;;;;112.43;40.27;;;;;4.70;102698.00;;;;9904019;29;20254;-79
2022/01/17 00:14:56;;;;;;;108.50;40.90;;;;;4.70;102706.00;;;;9905563;29;20272;-78
2022/01/17 00:20:08;;;;;;;108.87;42.03;;;;;4.70;102700.00;;;;9920462;29;20260;-79
2022/01/17 00:25:10;;;;;;;110.97;40.60;;;;;4.70;102699.00;;;;9905246;29;20252;-79
2022/01/17 00:30:12;;;;;;;106.73;43.03;;;;;4.70;102705.00;;;;9905711;29;20207;-78
2022/01/17 00:35:15;;;;;;;108.03;41.20;;;;;4.70;102701.00;;;;9905065;29;20271;-79
2022/01/17 00:40:18;;;;;;;121.20;42.27;;;;;4.70;102713.00;;;;9919678;29;20233;-79
2022/01/17 00:45:26;;;;;;;122.27;42.80;;;;;4.80;102718.00;;;;9911121;29;20202;-78
2022/01/17 00:50:29;;;;;;;119.40;45.37;;;;;4.80;102720.00;;;;9941873;29;20206;-79
2022/01/17 00:55:32;;;;;;;127.23;44.33;;;;;4.70;102730.00;;;;9941866;29;20732;-79
2022/01/17 01:00:35;;;;;;;112.67;43.67;;;;;4.70;102729.00;;;;9941234;29;20202;-79
2022/01/17 01:05:38;;;;;;;122.10;42.30;;;;;4.80;102739.00;;;;9940438;29;20254;-79
2022/01/17 01:10:40;;;;;;;124.83;43.83;;;;;4.80;102731.00;;;;9919111;29;20239;-78
2022/01/17 01:31:16;;;;;;;106.03;40.93;;;;;4.80;102755.00;;;;9919290;29;20227;-79
2022/01/17 01:36:26;;;;;;;107.50;41.27;;;;;4.80;102753.00;;;;9918894;29;20240;-79
2022/01/17 01:41:28;;;;;;;112.63;41.87;;;;;4.80;102743.00;;;;9882538;30;20204;-79
2022/01/17 01:46:30;;;;;;;119.17;41.03;;;;;4.80;102754.00;;;;9938007;29;20259;-79
2022/01/17 01:51:32;;;;;;;109.43;42.37;;;;;4.80;102758.00;;;;9955885;29;20218;-78
2022/01/17 01:56:42;;;;;;;111.57;40.43;;;;;4.80;102767.00;;;;9909360;29;20270;-79
2022/01/17 02:01:44;;;;;;;111.97;41.57;;;;;4.80;102781.00;;;;9917473;29;20222;-79
2022/01/17 02:06:46;;;;;;;100.07;40.23;;;;;4.80;102754.00;;;;9917608;29;20223;-79
2022/01/17 02:11:48;;;;;;;104.97;40.63;;;;;4.80;102736.00;;;;9917368;29;20879;-79
2022/01/17 02:16:51;;;;;;;96.30;40.17;;;;;4.80;102748.00;;;;9917989;29;20191;-79
2022/01/17 02:21:53;;;;;;;111.80;42.20;;;;;4.80;102741.00;;;;9887922;30;20227;-79
2022/01/17 02:26:55;;;;;;;108.77;42.10;;;;;4.80;102735.00;;;;9864681;30;20208;-79
2022/01/17 02:31:57;;;;;;;99.30;39.17;;;;;4.80;102753.00;;;;9879618;30;21055;-78
2022/01/17 02:36:59;;;;;;;100.50;40.40;;;;;4.80;102745.00;;;;9916514;29;20207;-79
2022/01/17 02:42:02;;;;;;;105.53;44.17;;;;;4.80;102742.00;;;;9916638;29;20664;-79
2022/01/17 02:47:04;;;;;;;104.90;43.53;;;;;4.90;102732.00;;;;9938676;29;20198;-79
2022/01/17 02:52:06;;;;;;;98.17;42.27;;;;;4.90;102741.00;;;;9939458;29;20218;-79
2022/01/17 02:57:08;;;;;;;108.30;43.77;;;;;4.90;102731.00;;;;9967237;29;20198;-79
2022/01/17 03:02:10;;;;;;;109.03;43.10;;;;;4.90;102746.00;;;;9939088;29;20198;-79
2022/01/17 03:07:12;;;;;;;109.13;42.70;;;;;4.90;102754.00;;;;9924002;29;20629;-79
2022/01/17 03:12:14;;;;;;;110.03;43.93;;;;;4.90;102754.00;;;;9930187;29;20218;-79
2022/01/17 03:17:16;;;;;;;102.63;43.03;;;;;4.90;102754.00;;;;9930183;29;20203;-79
2022/01/17 03:22:18;;;;;;;114.20;43.60;;;;;4.90;102744.00;;;;9959628;29;20536;-78
2022/01/17 03:27:21;;;;;;;101.17;41.20;;;;;4.90;102748.00;;;;9960531;29;20231;-79
2022/01/17 03:32:23;;;;;;;96.63;42.97;;;;;4.90;102747.00;;;;9929753;29;20235;-78
2022/01/17 03:37:25;;;;;;;106.13;43.07;;;;;4.90;102755.00;;;;9954696;29;20203;-78
2022/01/17 03:42:27;;;;;;;101.20;42.33;;;;;4.90;102755.00;;;;9892621;29;20202;-78
2022/01/17 03:47:30;;;;;;;100.77;43.93;;;;;4.90;102751.00;;;;9922008;29;20194;-79
2022/01/17 03:52:32;;;;;;;91.67;40.03;;;;;5.00;102746.00;;;;9907747;29;20364;-78
2022/01/17 03:57:34;;;;;;;109.90;42.03;;;;;4.90;102746.00;;;;9906632;29;20198;-78
2022/01/17 04:02:36;;;;;;;95.47;42.13;;;;;5.00;102753.00;;;;9891254;29;20195;-80
2022/01/17 04:07:38;;;;;;;92.80;40.40;;;;;5.00;102745.00;;;;9934220;29;20333;-79
2022/01/17 04:12:42;;;;;;;96.03;39.70;;;;;5.00;102738.00;;;;9943585;29;20211;-78
2022/01/17 04:17:44;;;;;;;98.57;41.33;;;;;5.00;102742.00;;;;9925832;29;20210;-79
2022/01/17 04:22:51;;;;;;;92.20;40.77;;;;;5.00;102741.00;;;;9920617;29;20199;-79
2022/01/17 04:27:53;;;;;;;94.17;39.73;;;;;5.00;102760.00;;;;9935285;29;20205;-78
2022/01/17 04:32:56;;;;;;;90.93;37.73;;;;;5.00;102747.00;;;;9916884;29;20216;-79
2022/01/17 04:38:08;;;;;;;91.13;38.17;;;;;5.00;102739.00;;;;9881496;29;20215;-79
2022/01/17 04:48:34;;;;;;;95.47;40.57;;;;;4.90;102747.00;;;;9904829;29;20648;-79
2022/01/17 04:53:36;;;;;;;112.10;40.17;;;;;4.90;102736.00;;;;9919713;29;20252;-79
2022/01/17 04:58:38;;;;;;;94.13;38.47;;;;;4.80;102733.00;;;;9904301;29;20553;-79
2022/01/17 05:03:39;;;;;;;90.30;38.97;;;;;4.80;102761.00;;;;9919855;29;20195;-78
2022/01/17 05:08:41;;;;;;;89.27;39.37;;;;;4.80;102746.00;;;;9892907;29;20235;-78
2022/01/17 05:13:47;;;;;;;97.73;40.27;;;;;4.80;102740.00;;;;9912052;29;20216;-78
2022/01/17 05:24:10;;;;;;;104.87;42.33;;;;;4.70;102748.00;;;;9881637;30;20656;-78
2022/01/17 05:29:17;;;;;;;102.07;40.63;;;;;4.70;102766.00;;;;9892452;29;20659;-78
2022/01/17 05:34:19;;;;;;;94.30;40.37;;;;;4.70;102772.00;;;;9925745;29;20215;-78
2022/01/17 05:39:21;;;;;;;95.97;40.23;;;;;4.70;102774.00;;;;9954275;29;20221;-78
2022/01/17 05:44:23;;;;;;;104.03;41.03;;;;;4.80;102784.00;;;;9888372;29;20199;-78
2022/01/17 05:49:26;;;;;;;110.27;42.83;;;;;4.90;102789.00;;;;9888959;29;20203;-78
2022/01/17 05:54:28;;;;;;;114.30;43.73;;;;;4.90;102793.00;;;;9917983;29;20230;-78
2022/01/17 05:59:30;;;;;;;122.27;45.53;;;;;5.00;102799.00;;;;9917728;29;20275;-78
2022/01/17 06:04:32;;;;;;;126.73;46.23;;;;;5.00;102794.00;;;;9918035;29;20199;-78
2022/01/17 06:09:34;;;;;;;128.30;46.93;;;;;5.00;102781.00;;;;9907820;29;20300;-79
2022/01/17 06:14:38;;;;;;;130.17;47.13;;;;;5.10;102813.00;;;;9941538;29;20211;-78
2022/01/17 06:19:40;;;;;;;123.40;46.93;;;;;5.10;102822.00;;;;9917245;29;20248;-79
2022/01/17 06:24:42;;;;;;;142.80;48.13;;;;;5.20;102832.00;;;;9917751;29;20195;-78
2022/01/17 06:29:43;;;;;;;144.50;50.13;;;;;5.20;102846.00;;;;9918245;29;20191;-78
2022/01/17 06:34:46;;;;;;;121.33;43.60;;;;;5.20;102839.00;;;;9916615;29;20584;-78
2022/01/17 06:39:48;;;;;;;142.20;49.63;;;;;5.20;102842.00;;;;9916075;29;20211;-78
2022/01/17 06:44:51;;;;;;;137.83;49.20;;;;;5.30;102872.00;;;;9920996;29;20195;-78
2022/01/17 06:49:53;;;;;;;135.30;48.93;;;;;5.30;102846.00;;;;9950263;29;20289;-79
2022/01/17 06:54:55;;;;;;;131.93;47.17;;;;;5.30;102841.00;;;;9931381;29;20214;-78
2022/01/17 06:59:57;;;;;;;139.40;48.53;;;;;5.30;102857.00;;;;9961003;29;20210;-78
2022/01/17 07:04:59;;;;;;;134.80;49.80;;;;;5.40;102888.00;;;;9945901;29;20199;-78
2022/01/17 07:10:01;;;;;;;142.30;50.03;;;;;5.40;102904.00;;;;9930299;29;20226;-78
2022/01/17 07:15:04;;;;;;;142.57;52.20;;;;;5.50;102922.00;;;;9960498;29;20242;-78
2022/01/17 07:20:07;;;;;;;140.13;52.97;;;;;5.50;102900.00;;;;9916260;29;20198;-78
2022/01/17 07:25:09;;;;;;;134.33;52.70;;;;;5.60;102868.00;;;;9960538;29;20196;-78
2022/01/17 07:30:12;;;;;;;146.33;53.77;;;;;5.60;102864.00;;;;9945101;29;20681;-78
2022/01/17 07:35:14;;;;;;;148.77;55.97;;;;;5.60;102885.00;;;;9944580;29;20583;-78
2022/01/17 07:40:16;;;;;;;150.27;55.33;;;;;5.60;102888.00;;;;9930007;29;20567;-78
2022/01/17 07:45:19;;;;;;;132.13;54.37;;;;;5.70;102920.00;;;;9929955;29;20186;-78
2022/01/17 07:50:25;;;;;;;140.33;54.43;;;;;5.70;102917.00;;;;9927497;29;20210;-78
2022/01/17 07:55:27;;;;;;;137.17;55.30;;;;;5.70;102905.00;;;;9955341;29;20226;-78
2022/01/17 08:00:29;;;;;;;127.23;51.33;;;;;5.70;102904.00;;;;9931663;29;20207;-78
2022/01/17 08:05:32;;;;;;;120.53;47.93;;;;;5.80;102888.00;;;;9943322;29;20739;-78
2022/01/17 08:10:36;;;;;;;103.80;46.53;;;;;5.90;102886.00;;;;9932831;29;20235;-78
2022/01/17 08:15:38;;;;;;;117.30;48.97;;;;;5.90;102878.00;;;;9909743;29;20236;-78
2022/01/17 08:20:41;;;;;;;90.97;40.43;;;;;6.00;102905.00;;;;9928434;29;20198;-78
2022/01/17 08:25:43;;;;;;;80.63;36.37;;;;;6.00;102912.00;;;;9944206;29;20194;-78
2022/01/17 08:30:45;;;;;;;83.10;40.60;;;;;6.00;102920.00;;;;9928301;29;20206;-78
2022/01/17 08:36:07;;;;;;;95.17;37.97;;;;;6.10;102922.00;;;;9927638;29;20207;-78
2022/01/17 08:41:20;;;;;;;72.23;35.47;;;;;6.20;102934.00;;;;9919377;29;20218;-78
2022/01/17 08:46:22;;;;;;;70.63;34.50;;;;;6.30;102941.00;;;;9904734;29;20294;-78
2022/01/17 08:51:24;;;;;;;63.80;31.77;;;;;6.40;102926.00;;;;9905476;29;20230;-78
2022/01/17 08:56:28;;;;;;;54.97;28.10;;;;;6.50;102932.00;;;;9919129;29;20211;-78
2022/01/17 09:01:31;;;;;;;57.00;24.63;;;;;6.60;102954.00;;;;9918647;29;20217;-78
2022/01/17 09:06:33;;;;;;;56.23;26.57;;;;;6.60;102962.00;;;;9903817;29;20214;-78
2022/01/17 09:11:35;;;;;;;55.73;26.30;;;;;6.70;102983.00;;;;9929124;29;20214;-78
2022/01/17 09:16:37;;;;;;;50.67;23.43;;;;;6.80;102988.00;;;;9895233;29;20763;-78
2022/01/17 09:21:41;;;;;;;46.40;22.13;;;;;6.80;102997.00;;;;9942802;29;20234;-78
2022/01/17 09:26:44;;;;;;;38.57;19.97;;;;;7.00;103004.00;;;;9949418;29;20270;-78
2022/01/17 09:31:47;;;;;;;44.93;20.27;;;;;6.90;103008.00;;;;9936520;29;20205;-78
2022/01/17 09:36:49;;;;;;;47.13;20.20;;;;;7.10;103004.00;;;;9934334;29;20213;-78
2022/01/17 09:41:51;;;;;;;40.07;18.80;;;;;7.50;103008.00;;;;9890333;29;20636;-79
2022/01/17 09:46:55;;;;;;;32.50;18.00;;;;;7.70;103002.00;;;;9917340;29;20209;-78
2022/01/17 09:57:06;;;;;;;40.30;16.57;;;;;8.30;103025.00;;;;9917742;29;20198;-78
2022/01/17 10:02:10;;;;;;;32.83;16.40;;;;;7.90;103052.00;;;;9922811;29;20198;-78
2022/01/17 10:07:12;;;;;;;26.47;14.33;;;;;7.60;103068.00;;;;9871950;29;20652;-78
2022/01/17 10:12:16;;;;;;;35.23;15.77;;;;;7.80;103055.00;;;;9910613;29;20682;-78
2022/01/17 10:17:20;;;;;;;31.80;14.13;;;;;8.10;103047.00;;;;9970535;29;20206;-78
2022/01/17 10:22:28;;;;;;;36.00;13.47;;;;;8.20;103060.00;;;;9932511;29;20209;-78
2022/01/17 10:27:59;;;;;;;36.57;14.27;;;;;8.00;103058.00;;;;9962021;29;20243;-78
2022/01/17 10:38:32;;;;;;;25.30;12.57;;;;;7.50;103071.00;;;;9909356;29;20198;-78
2022/01/17 10:43:38;;;;;;;26.37;12.40;;;;;7.60;103054.00;;;;9929192;29;20541;-78
2022/01/17 10:48:43;;;;;;;25.73;13.27;;;;;8.00;103055.00;;;;9908768;29;20256;-78
2022/01/17 10:53:49;;;;;;;26.33;12.37;;;;;8.30;103075.00;;;;9923761;29;20677;-78
2022/01/17 10:59:04;;;;;;;29.93;12.90;;;;;8.10;103068.00;;;;9907920;29;20203;-78
2022/01/17 11:04:09;;;;;;;21.90;11.93;;;;;8.20;103067.00;;;;9918884;29;20212;-78
2022/01/17 11:09:11;;;;;;;26.73;10.07;;;;;8.40;103053.00;;;;9908119;29;20273;-78
2022/01/17 11:14:14;;;;;;;23.33;9.63;;;;;8.60;103052.00;;;;9890447;29;20235;-78
2022/01/17 11:24:38;;;;;;;26.17;9.27;;;;;8.70;103070.00;;;;9944364;29;20309;-78
2022/01/17 11:29:40;;;;;;;19.87;9.37;;;;;8.60;103082.00;;;;9904577;29;20211;-78
2022/01/17 11:34:42;;;;;;;22.43;8.60;;;;;8.60;103064.00;;;;9931228;29;20268;-78
2022/01/17 11:39:52;;;;;;;17.27;6.30;;;;;8.60;103053.00;;;;9921574;29;20618;-78
2022/01/17 11:44:57;;;;;;;25.40;8.33;;;;;8.60;103056.00;;;;9906660;29;20294;-78
2022/01/17 11:50:35;;;;;;;20.27;8.87;;;;;8.70;103066.00;;;;9892002;29;20569;-78
2022/01/17 11:55:42;;;;;;;18.60;8.27;;;;;8.80;103070.00;;;;9934443;29;20580;-78
2022/01/17 12:00:46;;;;;;;21.00;9.00;;;;;8.90;103060.00;;;;9920692;29;20218;-78
2022/01/17 12:05:48;;;;;;;21.60;9.53;;;;;8.90;103054.00;;;;9927945;29;20203;-77
2022/01/17 12:10:58;;;;;;;17.27;8.50;;;;;9.20;103041.00;;;;9887966;30;20243;-78
2022/01/17 12:16:15;;;;;;;18.37;7.83;;;;;9.40;103025.00;;;;9883361;30;20235;-78
2022/01/17 12:21:40;;;;;;;18.23;7.10;;;;;9.10;103035.00;;;;9883249;30;20203;-78
2022/01/17 12:26:44;;;;;;;20.53;9.63;;;;;9.20;103040.00;;;;9903644;29;20743;-78
2022/01/17 12:31:47;;;;;;;20.63;9.50;;;;;9.30;103070.00;;;;9946429;29;20198;-78
2022/01/17 12:36:55;;;;;;;21.43;9.47;;;;;9.10;103066.00;;;;9928413;29;20218;-78
2022/01/17 12:42:03;;;;;;;22.07;9.70;;;;;9.00;103072.00;;;;9920935;29;20219;-78
2022/01/17 12:47:05;;;;;;;19.70;8.50;;;;;9.00;103066.00;;;;9943020;29;20202;-78
2022/01/17 12:52:27;;;;;;;22.33;8.10;;;;;8.70;103031.00;;;;9943441;29;20199;-78
2022/01/17 12:57:39;;;;;;;23.77;8.53;;;;;9.30;103040.00;;;;9884780;30;20242;-78
2022/01/17 13:02:51;;;;;;;13.33;8.43;;;;;9.80;103023.00;;;;9867912;30;20274;-78
2022/01/17 13:07:53;;;;;;;23.73;8.83;;;;;10.00;103030.00;;;;9902280;29;20234;-78
2022/01/17 13:12:57;;;;;;;18.43;8.30;;;;;9.70;103054.00;;;;9904443;29;20225;-78
2022/01/17 13:17:59;;;;;;;21.60;8.77;;;;;9.40;103044.00;;;;9903523;29;20660;-78
2022/01/17 13:23:06;;;;;;;22.77;9.37;;;;;9.20;103044.00;;;;9903922;29;20198;-78
2022/01/17 13:28:09;;;;;;;23.30;9.07;;;;;9.40;103050.00;;;;9888605;29;20206;-78
2022/01/17 13:33:11;;;;;;;20.30;9.07;;;;;9.30;103038.00;;;;9918390;29;20291;-78
2022/01/17 13:38:22;;;;;;;23.57;9.33;;;;;9.40;103052.00;;;;9934308;29;20186;-78
2022/01/17 13:43:24;;;;;;;20.83;8.47;;;;;9.50;103050.00;;;;9902328;29;20230;-78
2022/01/17 13:48:28;;;;;;;19.23;9.60;;;;;9.60;103080.00;;;;9902145;29;20231;-78
2022/01/17 13:53:32;;;;;;;21.17;8.77;;;;;9.70;103068.00;;;;9920108;29;20202;-78
2022/01/17 13:58:41;;;;;;;20.63;8.33;;;;;9.70;103049.00;;;;9954601;29;20212;-78
2022/01/17 14:03:43;;;;;;;20.33;9.13;;;;;9.60;103037.00;;;;9954499;29;20214;-78
2022/01/17 14:08:52;;;;;;;14.50;7.17;;;;;9.40;103036.00;;;;9927253;29;20247;-78
2022/01/17 14:13:57;;;;;;;23.03;7.57;;;;;9.20;103047.00;;;;9879672;30;20634;-78
2022/01/17 14:19:03;;;;;;;19.07;6.90;;;;;9.10;103043.00;;;;9865293;30;20200;-78
2022/01/17 14:24:23;;;;;;;21.27;7.60;;;;;9.00;103049.00;;;;9891110;29;20199;-78
2022/01/17 14:29:38;;;;;;;20.63;7.73;;;;;9.10;103035.00;;;;9905520;29;20279;-78
2022/01/17 14:34:43;;;;;;;21.77;7.17;;;;;9.00;103042.00;;;;9889688;29;20239;-79
2022/01/17 14:39:48;;;;;;;17.90;6.77;;;;;9.00;103039.00;;;;9893987;29;20211;-78
2022/01/17 14:44:57;;;;;;;21.37;6.43;;;;;8.80;103033.00;;;;9916061;29;20195;-78
2022/01/17 14:50:01;;;;;;;18.67;6.37;;;;;8.70;103044.00;;;;9915236;29;20215;-78
2022/01/17 14:59:22;;;;;;;16.63;6.17;;;;;8.60;103050.00;;;;9937296;29;20199;-78
2022/01/17 15:00:52;;;;;;;23.27;6.83;;;;;8.50;103067.00;;;;9944826;29;20298;-78
2022/01/17 15:05:55;;;;;;;21.23;6.37;;;;;8.50;103086.00;;;;9915356;29;20261;-79
2022/01/17 15:10:57;;;;;;;26.03;6.27;;;;;8.50;103094.00;;;;9922570;29;20234;-78
2022/01/17 15:15:59;;;;;;;16.37;6.10;;;;;8.50;103091.00;;;;9907652;29;20222;-78
2022/01/17 15:21:01;;;;;;;16.50;4.67;;;;;8.60;103111.00;;;;9907563;29;20203;-79
2022/01/17 15:26:03;;;;;;;14.20;4.50;;;;;8.60;103100.00;;;;9906588;29;20199;-79
2022/01/17 15:31:06;;;;;;;17.73;4.93;;;;;8.50;103109.00;;;;9920180;29;20737;-79
2022/01/17 15:36:07;;;;;;;12.80;3.70;;;;;8.30;103118.00;;;;9941997;29;20212;-78
2022/01/17 15:41:14;;;;;;;19.63;4.00;;;;;8.20;103123.00;;;;9893397;29;20238;-79
2022/01/17 15:46:15;;;;;;;16.60;3.73;;;;;8.20;103122.00;;;;9913794;29;20215;-79
2022/01/17 15:51:18;;;;;;;13.70;3.07;;;;;8.10;103122.00;;;;9885343;29;20302;-78
2022/01/17 15:56:20;;;;;;;17.97;3.90;;;;;8.10;103125.00;;;;9895862;29;20224;-78
2022/01/17 16:01:22;;;;;;;11.23;3.73;;;;;8.00;103130.00;;;;9920340;29;20214;-78
2022/01/17 16:06:26;;;;;;;21.50;4.27;;;;;7.90;103135.00;;;;9895819;29;20298;-78
2022/01/17 16:11:30;;;;;;;15.50;3.53;;;;;7.90;103142.00;;;;9935157;29;20267;-78
2022/01/17 16:16:33;;;;;;;18.83;4.17;;;;;7.80;103143.00;;;;9920263;29;20271;-78
2022/01/17 16:21:37;;;;;;;11.67;3.70;;;;;7.70;103160.00;;;;9904490;29;20199;-78
2022/01/17 16:26:39;;;;;;;13.77;4.00;;;;;7.70;103157.00;;;;9889925;29;20210;-78
2022/01/17 16:31:42;;;;;;;18.27;4.47;;;;;7.70;103159.00;;;;9904659;29;20206;-78
2022/01/17 16:36:44;;;;;;;20.00;4.10;;;;;7.70;103162.00;;;;9946611;29;20217;-78
2022/01/17 16:41:46;;;;;;;16.63;4.63;;;;;7.60;103170.00;;;;9912387;29;20221;-79
2022/01/17 16:47:10;;;;;;;13.20;4.50;;;;;7.60;103169.00;;;;9919416;29;20191;-78
2022/01/17 16:52:12;;;;;;;16.67;5.27;;;;;7.60;103177.00;;;;9934151;29;20199;-78
2022/01/17 16:57:14;;;;;;;16.23;5.07;;;;;7.70;103182.00;;;;9896414;30;20216;-78
2022/01/17 17:02:16;;;;;;;18.87;5.37;;;;;7.70;103183.00;;;;9862555;29;20580;-78
2022/01/17 17:07:19;;;;;;;14.87;4.50;;;;;7.60;103199.00;;;;9903545;29;20226;-79
2022/01/17 17:12:21;;;;;;;17.23;4.67;;;;;7.60;103191.00;;;;9924762;29;20203;-79
2022/01/17 17:17:23;;;;;;;17.20;3.97;;;;;7.40;103181.00;;;;9916996;29;20650;-78
2022/01/17 17:22:25;;;;;;;16.57;5.43;;;;;7.20;103192.00;;;;9917765;29;20206;-78
2022/01/17 17:27:29;;;;;;;17.57;4.17;;;;;7.10;103201.00;;;;9899232;29;20227;-78
2022/01/17 17:32:31;;;;;;;15.13;4.60;;;;;7.10;103198.00;;;;9895574;30;20204;-79
2022/01/17 17:37:33;;;;;;;15.60;4.97;;;;;7.00;103190.00;;;;9885991;29;20218;-79
2022/01/17 17:42:36;;;;;;;17.77;4.90;;;;;7.00;103197.00;;;;9866194;30;20208;-79
2022/01/17 17:47:39;;;;;;;18.23;5.00;;;;;6.90;103196.00;;;;9917276;29;20202;-78
2022/01/17 17:52:46;;;;;;;18.43;5.10;;;;;6.80;103189.00;;;;9902276;29;20199;-78
2022/01/17 17:57:53;;;;;;;16.27;4.80;;;;;6.80;103221.00;;;;9887139;29;20227;-78
2022/01/17 18:02:55;;;;;;;17.23;6.43;;;;;6.90;103210.00;;;;9886920;29;20210;-78
2022/01/17 18:07:59;;;;;;;22.43;5.37;;;;;7.00;103214.00;;;;9944766;29;20591;-78
2022/01/17 18:13:03;;;;;;;19.07;5.10;;;;;7.00;103208.00;;;;9944307;29;20297;-78
2022/01/17 18:18:05;;;;;;;18.60;4.90;;;;;7.00;103218.00;;;;9953821;29;20229;-78
2022/01/17 18:23:07;;;;;;;21.00;5.90;;;;;7.10;103218.00;;;;9905260;29;20664;-78
2022/01/17 18:28:12;;;;;;;27.00;5.93;;;;;7.10;103222.00;;;;9916392;29;20214;-78
2022/01/17 18:33:19;;;;;;;23.70;6.20;;;;;7.10;103221.00;;;;9934353;29;20204;-78
2022/01/17 18:38:21;;;;;;;16.40;6.20;;;;;7.00;103214.00;;;;9944438;29;20219;-78
2022/01/17 18:43:23;;;;;;;25.37;6.80;;;;;7.00;103221.00;;;;9929894;29;20209;-78
2022/01/17 18:48:29;;;;;;;18.93;6.03;;;;;7.00;103211.00;;;;9960419;29;20206;-78
2022/01/17 18:53:33;;;;;;;23.97;5.90;;;;;7.00;103218.00;;;;9924403;29;20213;-78
2022/01/17 18:58:35;;;;;;;19.47;6.70;;;;;7.00;103223.00;;;;9924152;29;20500;-78
2022/01/17 19:03:37;;;;;;;16.03;6.53;;;;;7.00;103230.00;;;;9925291;29;20655;-78
2022/01/17 19:08:39;;;;;;;23.43;6.27;;;;;7.00;103235.00;;;;9933577;29;20219;-78
2022/01/17 19:13:41;;;;;;;25.40;7.73;;;;;7.00;103235.00;;;;9876078;30;20218;-78
2022/01/17 19:24:06;;;;;;;20.90;7.40;;;;;7.00;103252.00;;;;9916035;29;20223;-78
2022/01/17 19:29:09;;;;;;;17.43;6.37;;;;;7.00;103255.00;;;;9905943;29;20236;-78
2022/01/17 19:34:11;;;;;;;19.47;6.17;;;;;6.90;103248.00;;;;9882606;30;20220;-78
2022/01/17 19:39:19;;;;;;;29.97;7.43;;;;;6.90;103249.00;;;;9953446;29;20202;-78
2022/01/17 19:44:21;;;;;;;24.13;7.13;;;;;6.90;103260.00;;;;9936080;29;20244;-78
2022/01/17 19:49:28;;;;;;;18.93;7.47;;;;;6.90;103271.00;;;;9905801;29;20198;-78
2022/01/17 19:54:30;;;;;;;19.53;5.97;;;;;6.90;103263.00;;;;9919404;29;20246;-78
2022/01/17 19:59:32;;;;;;;27.87;6.27;;;;;6.90;103273.00;;;;9921271;29;20214;-77
2022/01/17 20:04:33;;;;;;;23.80;6.93;;;;;6.80;103269.00;;;;9940342;29;20191;-77
2022/01/17 20:09:35;;;;;;;16.60;7.60;;;;;6.80;103274.00;;;;9905026;29;20238;-78
2022/01/17 20:14:37;;;;;;;18.43;7.37;;;;;6.70;103271.00;;;;9911898;29;20250;-77
2022/01/17 20:19:39;;;;;;;17.30;7.90;;;;;6.60;103284.00;;;;9919377;29;20203;-78
2022/01/17 20:24:41;;;;;;;24.37;7.93;;;;;6.60;103290.00;;;;9904258;29;20260;-77
2022/01/17 20:29:43;;;;;;;24.57;9.00;;;;;6.60;103296.00;;;;9933946;29;20537;-78
2022/01/17 20:34:45;;;;;;;18.77;8.90;;;;;6.60;103297.00;;;;9934844;29;20291;-78
2022/01/17 20:39:47;;;;;;;24.77;8.80;;;;;6.50;103304.00;;;;9903516;29;20207;-77
2022/01/17 20:44:49;;;;;;;19.70;8.87;;;;;6.50;103287.00;;;;9889165;29;20236;-78
2022/01/17 20:49:51;;;;;;;19.13;10.10;;;;;6.40;103304.00;;;;9933320;29;20203;-77
2022/01/17 20:54:52;;;;;;;20.80;10.00;;;;;6.40;103308.00;;;;9950569;29;20264;-77
2022/01/17 20:59:55;;;;;;;26.57;10.10;;;;;6.30;103307.00;;;;9940773;29;20629;-78
2022/01/17 21:04:57;;;;;;;26.93;10.70;;;;;6.30;103300.00;;;;9939857;29;20575;-77
2022/01/17 21:09:59;;;;;;;22.97;9.87;;;;;6.20;103309.00;;;;9934061;29;20272;-78
2022/01/17 21:15:04;;;;;;;28.47;11.03;;;;;6.00;103312.00;;;;9902833;29;20787;-78
2022/01/17 21:20:09;;;;;;;27.37;10.50;;;;;5.90;103318.00;;;;9917702;29;20211;-78
2022/01/17 21:25:12;;;;;;;29.87;11.20;;;;;5.70;103312.00;;;;9902148;29;20251;-77
2022/01/17 21:30:14;;;;;;;26.27;10.40;;;;;5.50;103295.00;;;;9902208;29;20270;-77
2022/01/17 21:35:16;;;;;;;30.03;10.07;;;;;5.30;103308.00;;;;9881053;30;20233;-78
2022/01/17 21:40:18;;;;;;;29.30;10.77;;;;;5.10;103308.00;;;;9878322;30;20212;-78
2022/01/17 21:45:20;;;;;;;30.10;11.07;;;;;5.00;103309.00;;;;9898770;29;20845;-77
2022/01/17 21:50:22;;;;;;;28.07;11.67;;;;;4.90;103304.00;;;;9928569;29;20207;-78
2022/01/17 21:55:25;;;;;;;28.47;11.97;;;;;4.80;103302.00;;;;9898110;29;20220;-77
2022/01/17 22:00:28;;;;;;;31.60;12.40;;;;;4.70;103308.00;;;;9879545;30;20553;-78
2022/01/17 22:05:30;;;;;;;26.77;12.13;;;;;4.50;103296.00;;;;9864990;30;20219;-78
2022/01/17 22:10:32;;;;;;;27.97;12.47;;;;;4.40;103308.00;;;;9878932;29;20231;-78
2022/01/17 22:15:35;;;;;;;27.60;11.73;;;;;4.40;103306.00;;;;9883178;29;20223;-78
2022/01/17 22:20:37;;;;;;;29.27;12.70;;;;;4.40;103301.00;;;;9887646;30;20215;-77
2022/01/17 22:25:39;;;;;;;28.70;13.93;;;;;4.50;103297.00;;;;9895698;29;20206;-78
2022/01/17 22:30:41;;;;;;;26.40;12.83;;;;;4.50;103293.00;;;;9922903;29;20207;-78
2022/01/17 22:35:43;;;;;;;33.50;12.80;;;;;4.50;103293.00;;;;9929720;29;20225;-77
2022/01/17 22:40:46;;;;;;;28.47;14.37;;;;;4.70;103293.00;;;;9899360;29;20211;-77
2022/01/17 22:45:48;;;;;;;32.87;14.13;;;;;4.80;103286.00;;;;9924245;29;20199;-77
2022/01/17 22:50:50;;;;;;;31.17;14.10;;;;;4.90;103291.00;;;;9940300;29;20231;-78
2022/01/17 22:55:53;;;;;;;32.40;12.70;;;;;5.00;103298.00;;;;9907897;29;20230;-78
2022/01/17 23:00:55;;;;;;;34.43;13.77;;;;;5.10;103296.00;;;;9922491;29;20206;-78
2022/01/17 23:05:58;;;;;;;28.23;13.80;;;;;5.20;103293.00;;;;9954203;29;20277;-78
2022/01/17 23:11:00;;;;;;;29.13;15.40;;;;;5.30;103302.00;;;;9887447;30;20235;-77
2022/01/17 23:16:03;;;;;;;32.90;14.67;;;;;5.30;103299.00;;;;9869868;30;20711;-77
2022/01/17 23:21:07;;;;;;;34.33;15.07;;;;;5.40;103302.00;;;;9891762;29;20217;-78
2022/01/17 23:26:09;;;;;;;37.83;15.30;;;;;5.40;103306.00;;;;9936326;29;20268;-77
2022/01/17 23:36:21;;;;;;;34.37;14.53;;;;;5.50;103309.00;;;;9906825;29;20294;-78
2022/01/17 23:41:23;;;;;;;37.77;15.87;;;;;5.50;103292.00;;;;9920972;29;20195;-77
2022/01/17 23:46:25;;;;;;;41.70;15.73;;;;;5.50;103298.00;;;;9921050;29;20198;-77
2022/01/17 23:51:28;;;;;;;47.57;16.00;;;;;5.60;103292.00;;;;9890984;29;20199;-77
2022/01/17 23:56:32;;;;;;;30.70;15.67;;;;;5.60;103283.00;;;;9920727;29;20268;-78
